Sunday, January 20, 2019, 1:57 AM EST
Back to Local

KFIG, Clearfield-lawrence Airport

Location: Clearfield, PA, United States Lat: 41.05
Local Time: 1:57 AM EST ( 6:57 GMT) Lon: -78.417
Time Zone: US/Eastern Elev: 1515 ft

Show me the last for .
Show Decoded

2019-01-20 01:13 METAR KFIG 200613Z AUTO 05006KT 4SM -FZRA BR OVC011 M02/M03 A2951 RMK AO2
                 UPB03E07FZRAB07SNE03 P0001 I1001 T10221028 =
2019-01-20 01:04 METAR KFIG 200604Z AUTO 05007KT 4SM UP BR OVC012 M02/M03 A2951 RMK AO2
                 UPB03SNE03 P0000 T10221028 =
2019-01-20 00:54 METAR KFIG 200554Z AUTO 05007KT 2 1/2SM -SN BR OVC012 M02/M03 A2953 RMK AO2
                 UPB23E33SNE23B33 PRESFR SLP014 P0004 60043 T10221033 11017 21022 58050 =
2019-01-20 00:46 METAR KFIG 200546Z AUTO 05007KT 2SM -SN BR OVC012 M02/M03 A2954 RMK AO2
                 UPB23E33SNE23B33 P0003 T10221033 =
2019-01-20 00:01 METAR KFIG 200501Z AUTO 06007KT 3SM -SN BR BKN012 OVC018 M02/M03 A2957 RMK AO2
                 P0000 T10221033 =
2019-01-19 23:54 METAR KFIG 200454Z AUTO 05007KT 1 1/2SM -SN BR BKN012 OVC020 M02/M03 A2958 RMK
                 AO2 SLP032 P0006 T10221033 410111022 =
2019-01-19 22:54 METAR KFIG 200354Z AUTO 06008KT 1SM -SN BR FEW008 BKN013 OVC020 M02/M03 A2964
                 RMK AO2 SLP052 P0007 T10221033 =
2019-01-19 22:29 METAR KFIG 200329Z AUTO 07007KT 1SM -SN BR VV010 M02/M03 A2964 RMK AO2 PRESFR
                 P0005 T10221033 =
2019-01-19 21:54 METAR KFIG 200254Z AUTO 08007KT 1/2SM SN FZFG VV006 M02/M03 A2968 RMK AO2 SLP067
                 P0010 60026 T10221028 58021 =
2019-01-19 20:54 METAR KFIG 200154Z AUTO 10007KT 3/4SM -SN BR VV009 M02/M03 A2971 RMK AO2 SLP079
                 P0007 T10221028 =
2019-01-19 20:42 METAR KFIG 200142Z AUTO 09008KT 3/4SM -SN BR BKN009 OVC015 M02/M03 A2971 RMK AO2
                 P0005 T10221028 =
2019-01-19 20:22 METAR KFIG 200122Z AUTO 09009KT 1SM -SN BR BKN009 OVC015 M02/M03 A2972 RMK AO2
                 P0003 T10221028 =
2019-01-19 19:54 METAR KFIG 200054Z AUTO 07007KT 3/4SM -SN BR VV009 M02/M03 A2974 RMK AO2 SLP089
                 P0009 T10171028 =
2019-01-19 19:52 METAR KFIG 200052Z AUTO 08008KT 3/4SM -SN BR VV008 M02/M03 A2974 RMK AO2 P0008 =
2019-01-19 19:40 METAR KFIG 200040Z AUTO 08010KT 1SM -SN BR OVC008 M02/M03 A2975 RMK AO2 P0007
                 T10171028 =
2019-01-19 18:54 METAR KFIG 192354Z AUTO 08009KT 1/2SM SN FZFG VV008 M02/M03 A2978 RMK AO2 SLP101
                 P0009 60022 T10171028 11011 21017 58021 =
2019-01-19 17:54 METAR KFIG 192254Z AUTO 08007KT 3/4SM -SN BR VV009 M02/M03 A2982 RMK AO2 SLP114
                 P0006 T10171028 =
2019-01-19 17:51 METAR KFIG 192251Z AUTO 08007KT 3/4SM -SN BR VV009 M02/M02 A2982 RMK AO2 P0006 =
2019-01-19 17:28 METAR KFIG 192228Z AUTO 07006KT 3/4SM -SN BR OVC010 M02/M02 A2982 RMK AO2 P0003
                 T10171022 =
2019-01-19 17:19 METAR KFIG 192219Z AUTO 07008KT 1SM -SN BR BKN010 OVC017 M02/M03 A2983 RMK AO2
                 P0002 T10171028 =
2019-01-19 16:54 METAR KFIG 192154Z AUTO 08007KT 1/2SM SN FZFG BKN010 OVC018 M02/M03 A2985 RMK
                 AO2 SLP124 P0004 T10171028 =
2019-01-19 16:20 METAR KFIG 192120Z AUTO 09007KT 1/2SM -SN FZFG FEW006 OVC011 M02/M02 A2987 RMK
                 AO2 P0002 T10171022 =
2019-01-19 15:54 METAR KFIG 192054Z AUTO 10007KT 1/2SM SN FZFG OVC013 M01/M03 A2988 RMK AO2
                 UPB28E30SNE11B30 SLP135 P0002 60003 T10111028 56026 =
2019-01-19 15:52 METAR KFIG 192052Z AUTO 10007KT 3/4SM -SN BR OVC013 M01/M03 A2988 RMK AO2
                 UPB28E30SNE11B30 P0001 =
2019-01-19 15:36 METAR KFIG 192036Z AUTO 10009KT 1 3/4SM -SN BR OVC015 M01/M03 A2989 RMK AO2
                 UPB28E30SNE11B30 P0001 T10111028 =
2019-01-19 15:11 METAR KFIG 192011Z AUTO 09006KT 3SM BR SCT010 OVC015 M01/M02 A2990 RMK AO2 SNE11
                 P0000 T10111022 =
2019-01-19 15:07 METAR KFIG 192007Z AUTO 09007KT 2 1/2SM -SN BR SCT010 OVC015 M01/M02 A2990 RMK
                 AO2 P0000 T10111022 =
2019-01-19 14:54 METAR KFIG 191954Z AUTO 10006KT 1 3/4SM -SN BR OVC013 M01/M02 A2990 RMK AO2
                 UPE14SNB14 SLP141 P0001 T10111022 =
2019-01-19 14:43 METAR KFIG 191943Z AUTO 11004KT 2SM -SN BR OVC011 M01/M02 A2990 RMK AO2
                 UPE14SNB14 P0001 T10111022 =
2019-01-19 14:26 METAR KFIG 191926Z AUTO 11007KT 1SM -SN BR OVC009 M01/M02 A2991 RMK AO2
                 UPE14SNB14 CIG 007V012 P0001 T10111022 =
2019-01-19 14:17 METAR KFIG 191917Z AUTO 10008KT 2 1/2SM -SN BR OVC009 M01/M03 A2991 RMK AO2
                 UPE14SNB14 P0000 T10111028 =
2019-01-19 13:54 METAR KFIG 191854Z AUTO 11005KT 5SM UP BR OVC010 M01/M03 A2992 RMK AO2
                 UPB37SNE37 SLP149 P0000 T10111028 =
2019-01-19 13:35 METAR KFIG 191835Z AUTO 10005KT 4SM -SN BR OVC010 M01/M03 A2994 RMK AO2 CIG
                 008V012 P0000 T10111028 =
2019-01-19 13:23 METAR KFIG 191823Z AUTO 11005KT 2 1/2SM -SN BR OVC010 M02/M03 A2996 RMK AO2 CIG
                 008V014 P0000 T10171028 =
2019-01-19 13:09 METAR KFIG 191809Z AUTO 10006KT 4SM -SN BR OVC011 M02/M03 A2996 RMK AO2 P0000
                 T10171028 =
2019-01-19 13:02 METAR KFIG 191802Z AUTO 08008KT 3SM -SN BR BKN009 OVC013 M02/M03 A2996 RMK AO2
                 P0000 T10171028 =
2019-01-19 12:57 METAR KFIG 191757Z AUTO 08008KT 2SM -SN BR OVC011 M02/M03 A2996 RMK AO2 PRESFR
                 P0000 T10171028 =
2019-01-19 12:54 METAR KFIG 191754Z AUTO 08008KT 1 1/4SM -SN BR BKN011 OVC014 M02/M03 A2996 RMK
                 AO2 UPB04E12SNB12 SLP163 P0002 60002 T10171028 11011 21022 58038 =
2019-01-19 12:51 METAR KFIG 191751Z AUTO 08006KT 1SM -SN BR BKN008 OVC011 M02/M03 A2997 RMK AO2
                 UPB04E12SNB12 P0002 =
2019-01-19 12:29 METAR KFIG 191729Z AUTO 11005KT 1/2SM SN FZFG OVC014 M02/M03 A2999 RMK AO2
                 UPB04E12SNB12 P0001 T10171028 =
2019-01-19 12:17 METAR KFIG 191717Z AUTO VRB04KT 1 3/4SM -SN BR OVC014 M01/M03 A3001 RMK AO2
                 UPB04E12SNB12 P0000 T10111033 =
2019-01-19 11:54 METAR KFIG 191654Z AUTO 12005KT 10SM OVC014 M01/M04 A3003 RMK AO2 SLP186
                 T10111039 =
2019-01-19 11:40 METAR KFIG 191640Z AUTO 13006KT 10SM OVC014 M01/M04 A3005 RMK AO2 T10111039 =
2019-01-19 10:54 METAR KFIG 191554Z AUTO 07007KT 10SM OVC021 M02/M04 A3006 RMK AO2 SLP196
                 T10171044 =
2019-01-19 09:54 METAR KFIG 191454Z AUTO 06007KT 10SM OVC026 M02/M04 A3008 RMK AO2 SLP203
                 T10171044 58007 =
2019-01-19 08:54 METAR KFIG 191354Z AUTO 05005KT 10SM OVC027 M02/M03 A3010 RMK AO2 SLP211
                 T10221033 =
2019-01-19 08:10 METAR KFIG 191310Z AUTO 06004KT 9SM OVC029 M02/M03 A3011 RMK AO2 T10221033 =
2019-01-19 07:54 METAR KFIG 191254Z AUTO 09003KT 10SM OVC030 M02/M03 A3012 RMK AO2 SLP215
                 T10221033 =
2019-01-19 06:54 METAR KFIG 191154Z AUTO 35003KT 7SM BKN034 M02/M03 A3010 RMK AO2 SLP210
                 T10221033 11011 21022 55004 =
2019-01-19 06:11 METAR KFIG 191111Z AUTO 06007KT 8SM FEW011 SCT025 M02/M03 A3007 RMK AO2
                 T10221033 =
2019-01-19 05:54 METAR KFIG 191054Z AUTO 06005KT 8SM SCT012 BKN025 M02/M03 A3007 RMK AO2 PRESFR
                 SLP200 T10221033 =
2019-01-19 05:46 METAR KFIG 191046Z AUTO 05005KT 8SM FEW012 SCT017 OVC025 M02/M04 A3008 RMK AO2
                 T10221039 =
2019-01-19 05:15 METAR KFIG 191015Z AUTO 00000KT 8SM BKN012 OVC018 M02/M03 A3010 RMK AO2
                 T10171028 =
2019-01-19 04:54 METAR KFIG 190954Z AUTO 00000KT 8SM BKN017 OVC023 M02/M03 A3011 RMK AO2 SLP212
                 T10171033 =
2019-01-19 03:54 METAR KFIG 190854Z AUTO 04004KT 8SM BKN022 BKN027 OVC033 M02/M03 A3011 RMK AO2
                 SLP214 T10171033 56009 =
2019-01-19 02:54 METAR KFIG 190754Z AUTO 00000KT 8SM FEW014 OVC023 M02/M03 A3013 RMK AO2 SLP218
                 T10171033 =

Support USWX by starting your Amazon purchase here.